Porterville, CA (93257)

9:41 AM PST on December 04, 2016 (GMT -0800)
Orchard Ridge | | Change Station

Elev 423 ft 36.09 °N, 119.06 °W | Updated 14 seconds ago

Clear
Clear
46.7 °F
Feels Like 47 °F
N
1.2
Wind Variable Wind from North
Gusts 0.0 mph

Today
High -- | Low -- °F
--% Chance of Precip.
Yesterday
High -- | Low -- °F
Precip. -- in
Pressure 30.25 in
Visibility 7.0 miles
Clouds Clear
Windchill 47 °F
Dew Point 43 °F
Humidity 88%
Rainfall 0.00 in
Snow Depth Not available.
6:51 AM 4:41 PM
Waxing Crescent, 24% visible
METAR KPTV 041656Z AUTO 00000KT 7SM CLR 07/03 A3020 RMK AO2 SLP241 T00720033 TSNO
Pressure 30.25 in
Visibility 7.0 miles
Clouds Clear
Windchill 47 °F
Dew Point 43 °F
Humidity 88%
Rainfall 0.00 in
Snow Depth Not available.
6:51 AM 4:41 PM
Waxing Crescent, 24% visible
METAR KPTV 041656Z AUTO 00000KT 7SM CLR 07/03 A3020 RMK AO2 SLP241 T00720033 TSNO

10-Day Weather Forecast

Almanac

Astronomy

Dec. 04, 2016 Rise Set
Actual Time
Civil Twilight
Nautical Twilight
Astronomical Twilight
Moon
Length of Visible Light
Length of Day
Tomorrow will be .
, % of the Moon is Illuminated

Today's Extremes

State Highs State Lows

Community

WunderPhotos

Upload Photos

1,955,635 photos uploaded!

WunderBlog® & News

Nearby

Air Quality

  Air Quality AQ Index Pollutant
Not available.

Snow Depth

Station Depth Elevation

Earthquake Activity

City Distance Mag. Time & Date
Minimum magnitude displayed is 2.5.

Coastal Water Temperatures

Place Temperature

Stations

Nearby Weather Stations

Station Location Temp. Windchill Dew Point Humidity Wind Precip. Elev Updated Type
                   

Watches & Warnings

There are currently no watches in effect.